Time;durP1;ratioP1;P1;durP2;ratioP2;P2;SDS_P1;SDS_P2;PMS_P1;PMS_P2;Temp;Humidity;BMP_temperature;BMP_pressure;BME280_temperature;BME280_humidity;BME280_pressure;Samples;Min_cycle;Max_cycle;Signal;HPM_P1;HPM_P2
2022/12/04 00:01:04;;;;;;;22.95;16.13;;;2.40;99.90;;;;;;6000152;23;20241;-70
2022/12/04 00:03:31;;;;;;;22.30;15.50;;;2.40;99.90;;;;;;6001552;23;20329;-70
2022/12/04 00:06:06;;;;;;;19.52;13.75;;;2.40;99.90;;;;;;6001380;23;20191;-70
2022/12/04 00:08:35;;;;;;;19.52;15.02;;;2.40;99.90;;;;;;5992930;23;20198;-70
2022/12/04 00:11:04;;;;;;;20.25;14.05;;;2.40;99.90;;;;;;5993488;23;20590;-70
2022/12/04 00:13:31;;;;;;;20.42;14.40;;;2.40;99.90;;;;;;6002361;23;20226;-70
2022/12/04 00:15:59;;;;;;;21.48;14.60;;;2.50;99.90;;;;;;6000592;23;20224;-70
2022/12/04 00:18:26;;;;;;;21.25;14.07;;;2.50;99.90;;;;;;5998471;23;20202;-70
2022/12/04 00:20:53;;;;;;;20.45;14.57;;;2.40;99.90;;;;;;6002815;23;20353;-70
2022/12/04 00:23:20;;;;;;;20.75;14.90;;;2.50;99.90;;;;;;5982378;23;20198;-70
2022/12/04 00:25:49;;;;;;;23.30;14.70;;;2.50;99.90;;;;;;5999013;23;20234;-70
2022/12/04 00:28:16;;;;;;;25.45;15.57;;;2.50;99.90;;;;;;6000298;23;20229;-70
2022/12/04 00:30:44;;;;;;;24.17;15.85;;;2.50;99.90;;;;;;6001068;23;20219;-70
2022/12/04 00:33:12;;;;;;;22.67;15.38;;;2.50;99.90;;;;;;5997592;23;20270;-70
2022/12/04 00:35:41;;;;;;;23.83;16.45;;;2.50;99.90;;;;;;5998218;23;20218;-70
2022/12/04 00:38:08;;;;;;;22.50;15.57;;;2.50;99.90;;;;;;5999679;23;20195;-70
2022/12/04 00:40:36;;;;;;;22.95;14.05;;;2.50;99.90;;;;;;5996006;23;20224;-70
2022/12/04 00:43:04;;;;;;;24.25;16.73;;;2.50;99.90;;;;;;6000976;23;20198;-70
2022/12/04 00:45:31;;;;;;;25.60;15.57;;;2.50;99.90;;;;;;6000628;23;20664;-70
2022/12/04 00:47:58;;;;;;;22.45;15.10;;;2.50;99.90;;;;;;6001472;23;20540;-70
2022/12/04 00:50:26;;;;;;;23.10;15.60;;;2.50;99.90;;;;;;6001878;23;20249;-70
2022/12/04 00:52:55;;;;;;;23.85;16.60;;;2.50;99.90;;;;;;6006076;23;20282;-70
2022/12/04 00:55:21;;;;;;;23.52;16.55;;;2.60;99.90;;;;;;6004857;23;20618;-70
2022/12/04 00:57:49;;;;;;;22.38;15.57;;;2.60;99.90;;;;;;5993923;23;20255;-70
2022/12/04 01:00:19;;;;;;;23.65;16.60;;;2.60;99.90;;;;;;6002703;23;20202;-70
2022/12/04 01:02:46;;;;;;;25.95;16.98;;;2.60;99.90;;;;;;6003282;23;20561;-70
2022/12/04 01:05:13;;;;;;;24.80;15.95;;;2.60;99.90;;;;;;6002920;23;20287;-70
2022/12/04 01:07:40;;;;;;;21.92;15.90;;;2.60;99.90;;;;;;6001116;23;20255;-70
2022/12/04 01:10:11;;;;;;;27.63;16.23;;;2.70;99.90;;;;;;5997661;23;20689;-70
2022/12/04 01:12:38;;;;;;;24.40;16.25;;;2.70;99.90;;;;;;5997856;23;20691;-71
2022/12/04 01:15:07;;;;;;;23.65;15.35;;;2.70;99.90;;;;;;6003688;23;20650;-70
2022/12/04 01:17:35;;;;;;;22.48;16.30;;;2.70;99.90;;;;;;6002542;23;20219;-70
2022/12/04 01:20:03;;;;;;;23.35;16.42;;;2.70;99.90;;;;;;6002121;23;20205;-70
2022/12/04 01:22:32;;;;;;;22.45;15.38;;;2.60;99.90;;;;;;6001654;23;20200;-70
2022/12/04 01:24:59;;;;;;;23.88;16.67;;;2.70;99.90;;;;;;6003887;23;20560;-70
2022/12/04 01:27:26;;;;;;;22.13;14.98;;;2.60;99.90;;;;;;6001966;23;20569;-70
2022/12/04 01:29:53;;;;;;;21.40;15.40;;;2.70;99.90;;;;;;5989294;23;20223;-70
2022/12/04 01:32:20;;;;;;;22.52;14.55;;;2.70;99.90;;;;;;6001762;23;20225;-70
2022/12/04 01:34:48;;;;;;;22.15;15.77;;;2.70;99.90;;;;;;6000001;23;20198;-70
2022/12/04 01:37:16;;;;;;;21.35;14.30;;;2.60;99.90;;;;;;5994763;23;20225;-70
2022/12/04 01:39:43;;;;;;;19.48;13.35;;;2.60;99.90;;;;;;5990915;23;20698;-70
2022/12/04 01:42:12;;;;;;;21.25;13.90;;;2.60;99.90;;;;;;6003415;23;20200;-70
2022/12/04 01:44:43;;;;;;;24.33;16.77;;;2.50;99.90;;;;;;6001055;23;20324;-70
2022/12/04 01:47:11;;;;;;;24.10;15.15;;;2.60;99.90;;;;;;6001117;23;20221;-70
2022/12/04 01:49:43;;;;;;;22.00;15.57;;;2.60;99.90;;;;;;6000714;23;20200;-70
2022/12/04 01:52:15;;;;;;;21.30;14.50;;;2.60;99.90;;;;;;6000657;23;20221;-70
2022/12/04 01:54:47;;;;;;;21.50;15.38;;;2.60;99.90;;;;;;6001711;23;20220;-70
2022/12/04 01:57:16;;;;;;;21.02;13.82;;;2.70;99.90;;;;;;5981508;23;20558;-70
2022/12/04 01:59:47;;;;;;;19.27;13.75;;;2.70;99.90;;;;;;6001380;23;20202;-71
2022/12/04 02:02:17;;;;;;;21.85;14.95;;;2.80;99.90;;;;;;6002657;23;20201;-71
2022/12/04 02:04:46;;;;;;;20.52;14.82;;;2.80;99.90;;;;;;6003598;23;20678;-70
2022/12/04 02:07:14;;;;;;;21.33;15.40;;;2.70;99.90;;;;;;6000963;23;20686;-70
2022/12/04 02:09:44;;;;;;;19.77;14.52;;;2.70;99.90;;;;;;6003086;23;20233;-70
2022/12/04 02:12:20;;;;;;;20.17;13.50;;;2.70;99.90;;;;;;6001631;23;20623;-70
2022/12/04 02:14:55;;;;;;;20.73;14.82;;;2.60;99.90;;;;;;5999618;23;20206;-70
2022/12/04 02:17:27;;;;;;;21.33;15.25;;;2.60;99.90;;;;;;5999800;23;21421;-70
2022/12/04 02:20:06;;;;;;;19.85;14.50;;;2.60;99.90;;;;;;6003208;23;20199;-70
2022/12/04 02:22:54;;;;;;;20.85;14.10;;;2.60;99.90;;;;;;5995646;23;20210;-70
2022/12/04 02:25:30;;;;;;;22.80;14.95;;;2.60;99.90;;;;;;6000562;23;20206;-70
2022/12/04 02:28:04;;;;;;;20.17;14.80;;;2.70;99.90;;;;;;6002141;23;20502;-70
2022/12/04 02:30:36;;;;;;;18.90;13.90;;;2.70;99.90;;;;;;5997985;23;20205;-71
2022/12/04 02:33:10;;;;;;;20.77;14.77;;;2.70;99.90;;;;;;6000433;23;20271;-70
2022/12/04 02:35:42;;;;;;;20.92;14.35;;;2.80;99.90;;;;;;6002559;23;20356;-70
2022/12/04 02:38:16;;;;;;;18.67;13.13;;;2.80;99.90;;;;;;5999521;23;20199;-70
2022/12/04 02:40:50;;;;;;;21.27;14.82;;;2.80;99.90;;;;;;6000093;23;20241;-70
2022/12/04 02:43:23;;;;;;;17.70;13.88;;;2.90;99.90;;;;;;5999700;23;20195;-70
2022/12/04 02:45:56;;;;;;;22.67;15.88;;;2.90;99.90;;;;;;6001393;23;20231;-70
2022/12/04 02:48:26;;;;;;;19.73;14.00;;;2.90;99.90;;;;;;6008250;23;20200;-70
2022/12/04 02:50:57;;;;;;;18.83;13.75;;;2.90;99.90;;;;;;5975393;23;20648;-70
2022/12/04 02:53:28;;;;;;;20.67;15.23;;;3.00;99.90;;;;;;6003194;23;20272;-70
2022/12/04 02:55:59;;;;;;;19.80;14.98;;;3.00;99.90;;;;;;6000819;23;20275;-70
2022/12/04 02:58:31;;;;;;;21.15;14.98;;;3.00;99.90;;;;;;5995163;23;20282;-70
2022/12/04 03:01:02;;;;;;;21.98;15.32;;;3.10;99.90;;;;;;5998988;23;20220;-70
2022/12/04 03:03:32;;;;;;;21.20;14.70;;;3.10;99.90;;;;;;6000816;23;20689;-70
2022/12/04 03:06:04;;;;;;;18.77;14.63;;;3.10;99.90;;;;;;5994153;23;20198;-70
2022/12/04 03:08:35;;;;;;;23.70;16.17;;;3.20;99.90;;;;;;5998950;23;20204;-70
2022/12/04 03:11:03;;;;;;;22.23;15.38;;;3.20;99.90;;;;;;5999877;23;20200;-70
2022/12/04 03:13:38;;;;;;;20.42;14.52;;;3.10;99.90;;;;;;5992266;23;20281;-70
2022/12/04 03:16:11;;;;;;;20.77;14.57;;;3.00;99.90;;;;;;6001747;23;20255;-70
2022/12/04 03:18:43;;;;;;;19.55;15.40;;;2.90;99.90;;;;;;5993525;23;20349;-70
2022/12/04 03:21:14;;;;;;;21.60;14.73;;;2.90;99.90;;;;;;6001275;23;20298;-70
2022/12/04 03:23:47;;;;;;;19.75;14.57;;;3.00;99.90;;;;;;6002399;23;20199;-70
2022/12/04 03:26:21;;;;;;;18.60;14.93;;;2.90;99.90;;;;;;5999847;23;20212;-70
2022/12/04 03:28:55;;;;;;;19.95;13.73;;;3.00;99.90;;;;;;6000784;23;20251;-70
2022/12/04 03:31:29;;;;;;;25.48;15.88;;;3.10;99.90;;;;;;5992923;23;20331;-70
2022/12/04 03:33:59;;;;;;;21.13;15.45;;;3.10;99.90;;;;;;5972746;23;20336;-70
2022/12/04 03:36:32;;;;;;;21.75;15.63;;;3.10;99.90;;;;;;5999448;23;20217;-70
2022/12/04 03:39:09;;;;;;;21.40;16.17;;;3.10;99.90;;;;;;5996749;23;20199;-70
2022/12/04 03:41:45;;;;;;;19.35;14.70;;;3.10;99.90;;;;;;5977802;23;20288;-70
2022/12/04 03:44:19;;;;;;;21.70;16.17;;;3.20;99.90;;;;;;6001677;23;20213;-70
2022/12/04 03:46:54;;;;;;;20.38;14.35;;;3.20;99.90;;;;;;6001814;23;20396;-71
2022/12/04 03:49:30;;;;;;;23.40;15.63;;;3.20;99.90;;;;;;5999253;23;20237;-70
2022/12/04 03:52:02;;;;;;;22.98;16.88;;;3.20;99.90;;;;;;6002755;23;20608;-70
2022/12/04 03:54:33;;;;;;;22.40;16.63;;;3.20;99.90;;;;;;6001671;23;20528;-70
2022/12/04 03:57:05;;;;;;;21.38;16.08;;;3.20;99.90;;;;;;6001913;23;20312;-70
2022/12/04 03:59:38;;;;;;;23.85;16.67;;;3.10;99.90;;;;;;6000508;23;20285;-70
2022/12/04 04:02:13;;;;;;;22.95;16.90;;;3.00;99.90;;;;;;5996390;23;20194;-70
2022/12/04 04:04:42;;;;;;;22.30;15.27;;;3.00;99.90;;;;;;6001374;23;20230;-70
2022/12/04 04:07:17;;;;;;;21.15;16.65;;;2.90;99.90;;;;;;5999924;23;20197;-70
2022/12/04 04:09:47;;;;;;;20.65;15.00;;;2.80;99.90;;;;;;6000095;23;20338;-70
2022/12/04 04:12:18;;;;;;;24.83;17.02;;;2.80;99.90;;;;;;5996694;23;20240;-70
2022/12/04 04:26:06;;;;;;;23.50;17.60;;;2.90;99.90;;;;;;6002246;23;20210;-70
2022/12/04 04:28:36;;;;;;;25.48;17.45;;;2.90;99.90;;;;;;5998137;23;20271;-70
2022/12/04 04:31:12;;;;;;;26.25;18.35;;;2.80;99.90;;;;;;5996855;23;20202;-70
2022/12/04 04:33:48;;;;;;;23.52;17.48;;;2.80;99.90;;;;;;5999868;23;20291;-70
2022/12/04 04:36:24;;;;;;;24.23;18.48;;;2.80;99.90;;;;;;6003061;23;20223;-70
2022/12/04 04:39:00;;;;;;;25.75;18.98;;;2.80;99.90;;;;;;6000001;23;20217;-70
2022/12/04 04:41:35;;;;;;;24.20;17.67;;;2.80;99.90;;;;;;6000427;23;20198;-70
2022/12/04 04:44:12;;;;;;;25.65;18.42;;;2.80;99.90;;;;;;6000717;23;20275;-70
2022/12/04 04:46:46;;;;;;;24.42;18.27;;;2.90;99.90;;;;;;5999784;23;20197;-70
2022/12/04 04:49:15;;;;;;;27.58;19.45;;;2.80;99.90;;;;;;6001930;23;20275;-70
2022/12/04 04:51:44;;;;;;;25.58;19.13;;;2.90;99.90;;;;;;6003448;23;20207;-70
2022/12/04 04:54:13;;;;;;;23.55;17.98;;;2.90;99.90;;;;;;5999440;23;20222;-70
2022/12/04 04:56:41;;;;;;;22.08;16.88;;;2.90;99.90;;;;;;6002058;23;20284;-70
2022/12/04 04:59:09;;;;;;;27.00;19.55;;;3.00;99.90;;;;;;6001804;23;20251;-70
2022/12/04 05:01:36;;;;;;;26.33;19.58;;;2.90;99.90;;;;;;5996779;23;20278;-70
2022/12/04 05:04:06;;;;;;;28.83;21.15;;;2.90;99.90;;;;;;6000500;23;20242;-70
2022/12/04 05:06:34;;;;;;;25.73;19.40;;;2.90;99.90;;;;;;6003450;23;20614;-71
2022/12/04 05:09:01;;;;;;;24.67;18.13;;;3.00;99.90;;;;;;5995377;23;20201;-70
2022/12/04 05:11:28;;;;;;;25.40;19.75;;;2.90;99.90;;;;;;6000494;23;20203;-70
2022/12/04 05:13:55;;;;;;;26.38;19.33;;;3.00;99.90;;;;;;6001455;23;20199;-70
2022/12/04 05:16:22;;;;;;;27.48;19.45;;;3.00;99.90;;;;;;5991840;23;20275;-70
2022/12/04 05:21:32;;;;;;;25.15;18.80;;;2.90;99.90;;;;;;5997459;23;20220;-70
2022/12/04 05:24:00;;;;;;;27.20;19.38;;;2.90;99.90;;;;;;6001829;23;20586;-70
2022/12/04 05:26:28;;;;;;;29.02;19.92;;;2.90;99.90;;;;;;6003699;23;20285;-70
2022/12/04 05:28:55;;;;;;;26.58;19.70;;;3.00;99.90;;;;;;6000736;23;20562;-70
2022/12/04 05:31:22;;;;;;;24.40;18.23;;;3.00;99.90;;;;;;5995718;23;20345;-70
2022/12/04 05:33:49;;;;;;;24.13;19.88;;;3.00;99.90;;;;;;6002543;23;20195;-69
2022/12/04 05:36:17;;;;;;;25.33;19.48;;;3.00;99.90;;;;;;6001801;23;20637;-70
2022/12/04 05:38:47;;;;;;;24.65;18.48;;;2.90;99.90;;;;;;5999677;23;20301;-70
2022/12/04 05:41:14;;;;;;;24.85;19.02;;;3.00;99.90;;;;;;6002201;23;20202;-70
2022/12/04 05:43:40;;;;;;;32.08;22.55;;;3.00;99.90;;;;;;6000917;23;20253;-70
2022/12/04 05:46:09;;;;;;;32.28;22.67;;;2.90;99.90;;;;;;5989616;23;20233;-70
2022/12/04 05:48:36;;;;;;;24.42;18.92;;;3.00;99.90;;;;;;6001849;23;20193;-70
2022/12/04 05:51:06;;;;;;;25.60;19.23;;;3.00;99.90;;;;;;6001289;23;20679;-70
2022/12/04 05:53:33;;;;;;;33.42;24.00;;;3.00;99.90;;;;;;6003139;23;20296;-70
2022/12/04 05:56:03;;;;;;;27.00;20.75;;;3.00;99.90;;;;;;5995194;23;20201;-70
2022/12/04 05:58:31;;;;;;;26.15;19.45;;;3.00;99.90;;;;;;5998897;23;20301;-70
2022/12/04 06:00:58;;;;;;;28.10;20.83;;;3.00;99.90;;;;;;6002074;23;20621;-70
2022/12/04 06:03:24;;;;;;;27.90;19.70;;;3.00;99.90;;;;;;6000863;23;20275;-70
2022/12/04 06:05:52;;;;;;;27.42;18.70;;;3.00;99.90;;;;;;5997304;23;20296;-70
2022/12/04 06:08:19;;;;;;;25.40;18.92;;;3.00;99.90;;;;;;5993231;23;20241;-69
2022/12/04 06:10:46;;;;;;;27.58;19.55;;;2.90;99.90;;;;;;6003112;23;20199;-70
2022/12/04 06:13:14;;;;;;;27.15;19.38;;;2.90;99.90;;;;;;6001340;23;20271;-70
2022/12/04 06:15:42;;;;;;;25.90;17.95;;;2.90;99.90;;;;;;6003940;23;20219;-70
2022/12/04 06:18:09;;;;;;;27.80;19.33;;;2.70;99.90;;;;;;5994597;23;20619;-70
2022/12/04 06:20:36;;;;;;;27.10;21.00;;;3.00;99.90;;;;;;5999961;23;20606;-70
2022/12/04 06:23:03;;;;;;;29.60;20.10;;;3.00;99.90;;;;;;6001154;23;20287;-70
2022/12/04 06:25:31;;;;;;;24.88;19.42;;;3.00;99.90;;;;;;6001378;23;20287;-70
2022/12/04 06:27:58;;;;;;;25.88;19.15;;;2.90;99.90;;;;;;5999421;23;20586;-70
2022/12/04 06:30:27;;;;;;;23.40;17.88;;;2.90;99.90;;;;;;6000712;23;20301;-70
2022/12/04 06:32:53;;;;;;;23.05;19.60;;;3.00;99.90;;;;;;6002693;23;20598;-70
2022/12/04 06:35:21;;;;;;;25.67;19.00;;;3.00;99.90;;;;;;6003286;23;20219;-70
2022/12/04 06:37:48;;;;;;;25.58;19.42;;;3.00;99.90;;;;;;6000759;23;20624;-70
2022/12/04 06:40:15;;;;;;;23.77;18.45;;;3.00;99.90;;;;;;6002435;23;20219;-70
2022/12/04 06:42:42;;;;;;;25.88;18.58;;;3.00;99.90;;;;;;6002832;23;20259;-70
2022/12/04 06:45:10;;;;;;;22.27;18.63;;;3.00;99.90;;;;;;6000215;23;20244;-70
2022/12/04 06:47:38;;;;;;;23.17;16.80;;;3.10;99.90;;;;;;5998340;23;20225;-70
2022/12/04 06:50:10;;;;;;;24.13;18.02;;;3.10;99.90;;;;;;6001861;23;20236;-70
2022/12/04 06:52:37;;;;;;;22.92;17.38;;;3.20;99.90;;;;;;6002622;23;20201;-70
2022/12/04 06:55:04;;;;;;;22.35;18.05;;;3.20;99.90;;;;;;6001598;23;20232;-70
2022/12/04 06:57:32;;;;;;;22.17;16.90;;;3.20;99.90;;;;;;5999554;23;20229;-70
2022/12/04 07:00:00;;;;;;;23.58;17.75;;;3.30;99.90;;;;;;6001478;23;20202;-70
2022/12/04 07:02:27;;;;;;;21.38;17.52;;;3.30;99.90;;;;;;5995631;23;20200;-70
2022/12/04 07:04:56;;;;;;;23.40;17.75;;;3.30;99.90;;;;;;6001820;23;20688;-70
2022/12/04 07:07:24;;;;;;;20.70;16.40;;;3.20;99.90;;;;;;6001252;23;20187;-70
2022/12/04 07:09:51;;;;;;;23.02;17.05;;;3.20;99.90;;;;;;6001148;23;20310;-70
2022/12/04 07:12:18;;;;;;;20.70;16.20;;;3.20;99.90;;;;;;5999006;23;20215;-70
2022/12/04 07:14:45;;;;;;;23.85;17.52;;;3.20;99.90;;;;;;6000165;23;20224;-70
2022/12/04 07:17:12;;;;;;;21.23;17.08;;;3.20;99.90;;;;;;5998166;23;20198;-70
2022/12/04 07:19:41;;;;;;;20.75;17.50;;;3.20;99.90;;;;;;6002569;23;20236;-70
2022/12/04 07:22:09;;;;;;;21.35;16.25;;;3.30;99.90;;;;;;6002074;23;20212;-70
2022/12/04 07:24:37;;;;;;;19.73;15.82;;;3.30;99.90;;;;;;6001399;23;20209;-70
2022/12/04 07:27:04;;;;;;;19.10;15.43;;;3.40;99.90;;;;;;6001706;23;20512;-70
2022/12/04 07:29:32;;;;;;;20.67;16.55;;;3.30;99.90;;;;;;5999706;23;20270;-70
2022/12/04 07:32:00;;;;;;;21.92;17.08;;;3.30;99.90;;;;;;5997690;23;20261;-70
2022/12/04 07:34:27;;;;;;;19.75;15.63;;;3.30;99.90;;;;;;6000522;23;20201;-70
2022/12/04 07:36:54;;;;;;;21.25;17.92;;;3.20;99.90;;;;;;6003473;23;20201;-69
2022/12/04 07:39:22;;;;;;;20.92;16.67;;;3.10;99.90;;;;;;5999771;23;20700;-70
2022/12/04 07:41:50;;;;;;;21.08;16.27;;;3.10;99.90;;;;;;5999209;23;20564;-69
2022/12/04 07:44:17;;;;;;;20.63;15.98;;;3.10;99.90;;;;;;6000633;23;20281;-70
2022/12/04 07:46:44;;;;;;;21.83;16.27;;;2.80;99.90;;;;;;5997148;23;20197;-70
2022/12/04 07:49:12;;;;;;;20.98;16.70;;;3.10;99.90;;;;;;6005704;23;20265;-71
2022/12/04 07:51:39;;;;;;;19.27;15.70;;;3.20;99.90;;;;;;6003522;23;20209;-70
2022/12/04 07:54:07;;;;;;;22.50;17.23;;;3.20;99.90;;;;;;6002349;23;20251;-70
2022/12/04 07:56:36;;;;;;;22.13;17.05;;;3.20;99.90;;;;;;5993820;23;20207;-70
2022/12/04 07:59:03;;;;;;;20.00;15.93;;;3.30;99.90;;;;;;6001340;23;20250;-70
2022/12/04 08:01:31;;;;;;;20.95;15.60;;;3.40;99.90;;;;;;6004875;23;20198;-70
2022/12/04 08:03:59;;;;;;;21.15;16.38;;;3.40;99.90;;;;;;6003620;23;20317;-70
2022/12/04 08:06:29;;;;;;;18.90;16.35;;;3.50;99.90;;;;;;6004488;23;20278;-70
2022/12/04 08:08:57;;;;;;;20.50;16.30;;;3.60;99.90;;;;;;6002903;23;20600;-70
2022/12/04 08:11:26;;;;;;;17.38;15.15;;;3.60;99.90;;;;;;6002014;23;20279;-70
2022/12/04 08:13:56;;;;;;;19.10;15.05;;;3.60;99.90;;;;;;6004653;23;20205;-70
2022/12/04 08:16:23;;;;;;;18.75;14.95;;;3.60;99.90;;;;;;6002520;23;20614;-70
2022/12/04 08:18:52;;;;;;;18.25;14.90;;;3.60;99.90;;;;;;6001883;23;20307;-70
2022/12/04 08:21:21;;;;;;;18.98;14.57;;;3.70;99.90;;;;;;5997333;23;20191;-70
2022/12/04 08:23:50;;;;;;;17.48;13.70;;;3.70;99.90;;;;;;6004354;23;20286;-70
2022/12/04 08:26:19;;;;;;;20.05;15.68;;;3.70;99.90;;;;;;6017304;23;20233;-70
2022/12/04 08:28:46;;;;;;;17.85;14.98;;;3.70;99.90;;;;;;6005459;23;20255;-70
2022/12/04 08:31:16;;;;;;;19.10;15.80;;;3.70;99.90;;;;;;6004646;23;20205;-70
2022/12/04 08:33:45;;;;;;;18.90;16.30;;;3.70;99.90;;;;;;6004100;23;20818;-70
2022/12/04 08:36:14;;;;;;;19.90;15.35;;;3.70;99.90;;;;;;6001733;23;20224;-70
2022/12/04 08:38:41;;;;;;;19.52;16.25;;;3.70;99.90;;;;;;6007439;23;20220;-70
2022/12/04 08:41:12;;;;;;;21.02;15.77;;;3.70;99.90;;;;;;6002932;23;20319;-70
2022/12/04 08:43:39;;;;;;;19.60;14.55;;;3.60;99.90;;;;;;6010616;23;20219;-70
2022/12/04 08:46:08;;;;;;;16.98;14.38;;;3.60;99.90;;;;;;6008302;23;20193;-70
2022/12/04 08:48:39;;;;;;;18.27;14.50;;;3.60;99.90;;;;;;6001815;23;20199;-70
2022/12/04 08:51:07;;;;;;;17.38;13.63;;;3.60;99.90;;;;;;6003136;23;20227;-70
2022/12/04 08:53:36;;;;;;;20.27;15.15;;;3.60;99.90;;;;;;6003451;23;20501;-69
2022/12/04 08:56:04;;;;;;;17.98;13.77;;;3.50;99.90;;;;;;6000258;23;20252;-70
2022/12/04 08:58:31;;;;;;;18.00;14.15;;;3.40;99.90;;;;;;6000868;23;20292;-70
2022/12/04 09:01:04;;;;;;;19.38;14.48;;;3.40;99.90;;;;;;5999807;23;20200;-70
2022/12/04 09:03:32;;;;;;;21.50;14.40;;;3.30;99.90;;;;;;6009310;23;20239;-70
2022/12/04 09:06:02;;;;;;;20.65;14.65;;;3.30;99.90;;;;;;5996456;23;20201;-70
2022/12/04 09:08:30;;;;;;;18.48;12.70;;;3.30;99.90;;;;;;6010664;23;20383;-70
2022/12/04 09:11:03;;;;;;;20.67;15.48;;;3.30;99.90;;;;;;6010034;23;20292;-70
2022/12/04 09:13:30;;;;;;;21.55;14.15;;;3.30;99.90;;;;;;6015654;23;20286;-71
2022/12/04 09:15:57;;;;;;;14.65;12.40;;;3.30;99.90;;;;;;6002519;23;20292;-68
2022/12/04 09:18:24;;;;;;;19.25;14.38;;;3.30;99.90;;;;;;6002096;23;20575;-71
2022/12/04 09:20:56;;;;;;;16.90;12.18;;;3.70;99.90;;;;;;6001812;23;20200;-71
2022/12/04 09:23:25;;;;;;;16.90;12.82;;;4.40;99.90;;;;;;6002651;23;20297;-70
2022/12/04 09:25:52;;;;;;;17.23;12.77;;;4.20;99.90;;;;;;6002937;23;20221;-70
2022/12/04 09:28:20;;;;;;;17.45;14.23;;;4.20;99.90;;;;;;6000656;23;20549;-71
2022/12/04 09:30:56;;;;;;;15.68;12.90;;;4.20;99.90;;;;;;6002419;23;20609;-70
2022/12/04 09:33:23;;;;;;;19.20;13.02;;;4.10;99.90;;;;;;6003555;23;20193;-70
2022/12/04 09:35:50;;;;;;;18.75;13.88;;;3.90;99.90;;;;;;5998086;23;20316;-70
2022/12/04 09:38:17;;;;;;;17.80;13.63;;;3.80;99.90;;;;;;6001206;23;20279;-70
2022/12/04 09:40:52;;;;;;;16.05;12.23;;;3.90;99.90;;;;;;5998364;23;20221;-70
2022/12/04 09:43:29;;;;;;;16.80;14.25;;;3.90;99.90;;;;;;5991944;23;20255;-74
2022/12/04 09:46:01;;;;;;;18.00;14.63;;;3.90;99.90;;;;;;6003704;23;20590;-73
2022/12/04 09:48:41;;;;;;;16.15;13.43;;;3.90;99.90;;;;;;6002808;23;20212;-73
2022/12/04 09:51:17;;;;;;;15.27;12.60;;;3.90;99.90;;;;;;6004780;23;20272;-73
2022/12/04 09:53:48;;;;;;;19.10;14.98;;;3.80;99.90;;;;;;5996683;23;20622;-71
2022/12/04 09:56:19;;;;;;;19.25;15.63;;;3.90;99.90;;;;;;6001472;23;20244;-71
2022/12/04 09:58:50;;;;;;;17.40;15.23;;;3.90;99.90;;;;;;5996802;23;20229;-71
2022/12/04 10:01:24;;;;;;;19.15;16.08;;;3.90;99.90;;;;;;6005998;23;20228;-71
2022/12/04 10:03:53;;;;;;;19.20;16.55;;;4.00;99.90;;;;;;6009128;23;20278;-71
2022/12/04 10:06:24;;;;;;;16.88;13.45;;;4.00;99.90;;;;;;6006672;23;20289;-71
2022/12/04 10:08:58;;;;;;;17.77;14.10;;;4.10;99.90;;;;;;6001247;23;20222;-71
2022/12/04 10:11:40;;;;;;;16.65;13.63;;;4.10;99.90;;;;;;6001697;23;20665;-71
2022/12/04 10:14:24;;;;;;;17.02;12.77;;;4.10;99.90;;;;;;5995706;23;20205;-72
2022/12/04 10:17:16;;;;;;;16.17;12.68;;;4.10;99.90;;;;;;6003358;23;20201;-71
2022/12/04 10:19:53;;;;;;;19.05;13.02;;;4.20;99.90;;;;;;6001332;23;20217;-71
2022/12/04 10:22:25;;;;;;;17.55;12.00;;;4.20;99.90;;;;;;5998194;23;20251;-71
2022/12/04 10:24:57;;;;;;;21.83;15.30;;;4.30;99.90;;;;;;5983444;23;20631;-71
2022/12/04 10:27:30;;;;;;;79.97;40.75;;;4.30;99.90;;;;;;5995200;23;20190;-71
2022/12/04 10:30:02;;;;;;;47.80;29.05;;;4.30;99.90;;;;;;5994959;23;20224;-71
2022/12/04 10:32:33;;;;;;;19.30;16.42;;;4.30;99.90;;;;;;5992427;23;20644;-71
2022/12/04 10:35:15;;;;;;;15.48;13.05;;;4.30;99.90;;;;;;5997342;23;20241;-71
2022/12/04 10:37:45;;;;;;;15.50;13.65;;;4.30;99.90;;;;;;5994101;23;20198;-71
2022/12/04 10:40:18;;;;;;;16.58;13.35;;;4.30;99.90;;;;;;5993998;23;20222;-71
2022/12/04 10:42:52;;;;;;;17.95;12.85;;;4.30;99.90;;;;;;5990771;23;20506;-71
2022/12/04 10:45:22;;;;;;;20.30;15.90;;;4.30;99.90;;;;;;6002109;23;20194;-72
2022/12/04 10:47:52;;;;;;;20.95;16.67;;;4.20;99.90;;;;;;5999819;23;20190;-72
2022/12/04 10:50:21;;;;;;;17.17;13.15;;;4.10;99.90;;;;;;6000502;23;20198;-71
2022/12/04 10:52:50;;;;;;;19.30;11.98;;;4.00;99.90;;;;;;5997174;23;20194;-71
2022/12/04 10:55:29;;;;;;;16.90;13.05;;;3.80;99.90;;;;;;6003829;23;20563;-71
2022/12/04 10:57:58;;;;;;;17.10;12.75;;;3.70;99.90;;;;;;6002611;23;20194;-74
2022/12/04 11:00:28;;;;;;;17.83;13.50;;;3.60;99.90;;;;;;6002810;23;20296;-71
2022/12/04 11:02:57;;;;;;;16.88;13.05;;;3.60;99.90;;;;;;6003016;23;20655;-71
2022/12/04 11:05:28;;;;;;;22.48;16.67;;;3.60;99.90;;;;;;6014685;23;20208;-71
2022/12/04 11:07:57;;;;;;;15.65;12.45;;;3.70;99.90;;;;;;6002558;23;20193;-71
2022/12/04 11:10:32;;;;;;;16.80;15.10;;;3.70;99.90;;;;;;6001692;23;20277;-71
2022/12/04 11:13:03;;;;;;;16.75;13.57;;;3.80;99.90;;;;;;5996324;23;20277;-71
2022/12/04 11:15:31;;;;;;;15.70;12.50;;;3.80;99.90;;;;;;6010583;23;20206;-71
2022/12/04 11:18:07;;;;;;;16.65;13.20;;;3.80;99.90;;;;;;5995996;23;20193;-70
2022/12/04 11:20:35;;;;;;;16.73;12.18;;;3.70;99.90;;;;;;6001888;23;20340;-71
2022/12/04 11:23:02;;;;;;;15.18;11.65;;;3.70;99.90;;;;;;5995392;23;20194;-71
2022/12/04 11:25:35;;;;;;;15.25;12.25;;;3.60;99.90;;;;;;5997541;23;20317;-71
2022/12/04 11:28:04;;;;;;;15.85;12.32;;;3.60;99.90;;;;;;6003496;23;20198;-71
2022/12/04 11:30:34;;;;;;;15.00;12.05;;;3.60;99.90;;;;;;6000566;23;20198;-71
2022/12/04 11:33:03;;;;;;;17.20;13.30;;;3.60;99.90;;;;;;6000962;23;20225;-71
2022/12/04 11:35:31;;;;;;;17.92;13.00;;;3.70;99.90;;;;;;6000187;23;20222;-72
2022/12/04 11:38:02;;;;;;;17.33;13.05;;;3.70;99.90;;;;;;6002482;23;20623;-71
2022/12/04 11:40:30;;;;;;;16.48;12.98;;;3.80;99.90;;;;;;5997565;23;20771;-71
2022/12/04 11:43:01;;;;;;;16.05;12.20;;;3.90;99.90;;;;;;6001656;23;20276;-72
2022/12/04 11:45:30;;;;;;;17.83;15.25;;;3.90;99.90;;;;;;6011174;23;20201;-75
2022/12/04 11:48:00;;;;;;;17.75;12.80;;;4.00;99.90;;;;;;6002313;23;20663;-71
2022/12/04 11:50:38;;;;;;;16.20;13.48;;;4.00;99.90;;;;;;6013765;23;20202;-72
2022/12/04 11:53:13;;;;;;;17.55;13.20;;;4.00;99.90;;;;;;6000648;23;20719;-72
2022/12/04 11:55:59;;;;;;;15.95;13.15;;;4.00;99.90;;;;;;6000497;23;20287;-71
2022/12/04 11:58:41;;;;;;;16.30;12.90;;;4.00;99.90;;;;;;5999985;23;20194;-71
2022/12/04 12:01:23;;;;;;;16.77;12.30;;;4.00;99.90;;;;;;5995108;23;20195;-71
2022/12/04 12:04:07;;;;;;;19.35;14.30;;;4.00;99.90;;;;;;5992255;23;20276;-71
2022/12/04 12:06:37;;;;;;;18.85;13.05;;;4.00;99.90;;;;;;6002636;23;20196;-71
2022/12/04 12:09:19;;;;;;;16.30;13.10;;;4.00;99.90;;;;;;5999212;23;20272;-71
2022/12/04 12:11:51;;;;;;;18.15;14.10;;;4.00;99.90;;;;;;6001366;23;20202;-71
2022/12/04 12:14:25;;;;;;;15.73;12.20;;;4.00;99.90;;;;;;5996092;23;20466;-71
2022/12/04 12:17:11;;;;;;;14.77;11.82;;;4.10;99.90;;;;;;6002341;23;21377;-71
2022/12/04 12:20:02;;;;;;;16.10;12.02;;;4.10;99.90;;;;;;6001797;23;20297;-71
2022/12/04 12:23:12;;;;;;;15.52;12.73;;;4.20;99.90;;;;;;5995465;23;20202;-71
2022/12/04 12:25:48;;;;;;;16.42;12.30;;;4.20;99.90;;;;;;5912917;24;20240;-72
2022/12/04 12:28:27;;;;;;;13.85;10.88;;;4.30;99.90;;;;;;5904336;24;20287;-73
2022/12/04 12:31:09;;;;;;;15.52;12.52;;;4.40;99.90;;;;;;5972199;23;20202;-73
2022/12/04 12:33:44;;;;;;;16.92;11.95;;;4.50;99.90;;;;;;5994954;23;20195;-73
2022/12/04 12:36:13;;;;;;;15.57;12.23;;;4.60;99.90;;;;;;5993925;23;20623;-73
2022/12/04 12:38:46;;;;;;;16.55;13.15;;;4.50;99.90;;;;;;6014532;23;20217;-72
2022/12/04 12:41:16;;;;;;;15.25;11.93;;;4.70;99.90;;;;;;6004151;23;20194;-73
2022/12/04 12:43:48;;;;;;;15.25;11.48;;;4.70;99.90;;;;;;6001428;23;20609;-73
2022/12/04 12:46:21;;;;;;;16.42;13.40;;;4.80;99.90;;;;;;6013503;23;20190;-72
2022/12/04 12:48:55;;;;;;;16.88;14.43;;;4.80;99.90;;;;;;6001111;23;20204;-72
2022/12/04 12:51:31;;;;;;;15.85;12.77;;;4.90;99.90;;;;;;6004732;23;20194;-73
2022/12/04 12:54:09;;;;;;;15.00;11.30;;;4.90;99.90;;;;;;6000988;23;20636;-73
2022/12/04 12:56:41;;;;;;;16.67;12.40;;;4.90;99.90;;;;;;6004086;23;20250;-73
2022/12/04 12:59:15;;;;;;;16.65;12.23;;;4.90;99.90;;;;;;5991747;23;20285;-73
2022/12/04 13:01:47;;;;;;;15.65;12.48;;;5.00;99.90;;;;;;6003562;23;20283;-72
2022/12/04 13:04:22;;;;;;;16.35;11.88;;;5.00;99.90;;;;;;5992678;23;20197;-72
2022/12/04 13:07:04;;;;;;;17.33;11.68;;;4.90;99.90;;;;;;6021219;23;20227;-72